createdAt,value
2022-09-14T00:01:36.539Z,24.38
2022-09-14T00:04:12.404Z,24.39
2022-09-14T00:06:40.041Z,24.40
2022-09-14T00:09:07.863Z,24.40
2022-09-14T00:11:37.113Z,24.41
2022-09-14T00:14:05.350Z,24.42
2022-09-14T00:16:35.692Z,24.43
2022-09-14T00:19:08.344Z,24.43
2022-09-14T00:21:38.801Z,24.42
2022-09-14T00:24:07.400Z,24.41
2022-09-14T00:26:35.605Z,24.41
2022-09-14T00:29:04.999Z,24.40
2022-09-14T00:31:35.774Z,24.38
2022-09-14T00:34:05.789Z,24.36
2022-09-14T00:36:34.415Z,24.33
2022-09-14T00:39:01.879Z,24.31
2022-09-14T00:41:34.297Z,24.30
2022-09-14T00:44:10.396Z,24.25
2022-09-14T00:46:46.834Z,24.21
2022-09-14T00:49:32.535Z,24.17
2022-09-14T00:52:12.399Z,24.13
2022-09-14T00:54:43.736Z,24.09
2022-09-14T00:57:11.669Z,24.07
2022-09-14T00:59:41.396Z,24.05
2022-09-14T01:02:11.177Z,24.05
2022-09-14T01:04:38.611Z,24.01
2022-09-14T01:07:39.372Z,23.98
2022-09-14T01:10:25.584Z,23.97
2022-09-14T01:13:32.806Z,23.93
2022-09-14T01:16:38.345Z,23.87
2022-09-14T01:19:27.694Z,23.83
2022-09-14T01:22:04.735Z,23.80
2022-09-14T01:24:41.189Z,23.78
2022-09-14T01:27:26.943Z,23.75
2022-09-14T01:30:15.268Z,23.74
2022-09-14T01:33:09.236Z,23.68
2022-09-14T01:35:44.864Z,23.66
2022-09-14T01:38:35.995Z,23.62
2022-09-14T01:41:07.604Z,23.60
2022-09-14T01:44:11.871Z,23.60
2022-09-14T01:46:45.396Z,23.60
2022-09-14T01:49:23.678Z,23.62
2022-09-14T01:52:01.952Z,23.62
2022-09-14T01:54:43.978Z,23.63
2022-09-14T01:57:19.757Z,23.62
2022-09-14T01:59:51.206Z,23.61
2022-09-14T02:02:34.760Z,23.62
2022-09-14T02:05:11.096Z,23.58
2022-09-14T02:07:38.660Z,23.54
2022-09-14T02:10:12.567Z,23.50
2022-09-14T02:12:41.157Z,23.46
2022-09-14T02:15:11.755Z,23.43
2022-09-14T02:17:39.801Z,23.43
2022-09-14T02:20:13.069Z,23.44
2022-09-14T02:22:40.090Z,23.41
2022-09-14T02:25:07.729Z,23.40
2022-09-14T02:27:34.593Z,23.38
2022-09-14T02:30:01.779Z,23.36
2022-09-14T02:32:56.542Z,23.34
2022-09-14T02:35:40.146Z,23.31
2022-09-14T02:38:45.992Z,23.30
2022-09-14T02:41:53.934Z,23.28
2022-09-14T02:44:44.010Z,23.28
2022-09-14T02:47:33.897Z,23.28
2022-09-14T02:50:31.526Z,23.25
2022-09-14T02:53:25.629Z,23.22
2022-09-14T02:55:59.203Z,23.18
2022-09-14T02:58:38.910Z,23.14
2022-09-14T03:01:08.118Z,23.09
2022-09-14T03:03:35.963Z,23.07
2022-09-14T03:06:03.472Z,23.02
2022-09-14T03:08:30.711Z,23.00
2022-09-14T03:10:58.324Z,22.98
2022-09-14T03:13:25.504Z,22.98
2022-09-14T03:15:52.905Z,22.96
2022-09-14T03:18:20.271Z,22.94
2022-09-14T03:20:47.367Z,22.89
2022-09-14T03:23:15.143Z,22.87
2022-09-14T03:25:44.516Z,22.86
2022-09-14T03:28:12.616Z,22.85
2022-09-14T03:30:39.666Z,22.85
2022-09-14T03:33:06.861Z,22.84
2022-09-14T03:35:34.023Z,22.85
2022-09-14T03:38:03.271Z,22.86
2022-09-14T03:40:31.105Z,22.89
2022-09-14T03:42:58.184Z,22.89
2022-09-14T03:45:25.343Z,22.90
2022-09-14T03:47:52.366Z,22.92
2022-09-14T03:50:20.085Z,22.95
2022-09-14T03:52:47.856Z,22.96
2022-09-14T03:55:15.467Z,22.98
2022-09-14T03:57:42.443Z,22.99
2022-09-14T04:00:11.599Z,22.99
2022-09-14T04:02:39.968Z,23.00
2022-09-14T04:05:07.409Z,23.01
2022-09-14T04:07:34.414Z,23.03
2022-09-14T04:10:01.503Z,23.05
2022-09-14T04:12:29.291Z,23.08
2022-09-14T04:14:56.555Z,23.10
2022-09-14T04:17:25.107Z,23.11
2022-09-14T04:19:52.067Z,23.11
2022-09-14T04:22:19.209Z,23.09
2022-09-14T04:24:46.317Z,23.10
2022-09-14T04:27:13.564Z,23.10
2022-09-14T04:29:40.491Z,23.10
2022-09-14T04:32:07.458Z,23.10
2022-09-14T04:34:35.737Z,23.11
2022-09-14T04:37:02.998Z,23.12
2022-09-14T04:39:30.339Z,23.14
2022-09-14T04:41:57.834Z,23.13
2022-09-14T04:44:25.187Z,23.12
2022-09-14T04:46:52.352Z,23.13
2022-09-14T04:49:21.534Z,23.14
2022-09-14T04:51:48.823Z,23.14
2022-09-14T04:54:17.854Z,23.12
2022-09-14T04:56:45.490Z,23.13
2022-09-14T04:59:13.479Z,23.12
2022-09-14T05:01:44.499Z,23.08
2022-09-14T05:04:12.566Z,23.04
2022-09-14T05:06:42.025Z,23.04
2022-09-14T05:09:16.807Z,23.00
2022-09-14T05:11:44.497Z,22.96
2022-09-14T05:14:13.559Z,22.93
2022-09-14T05:16:42.878Z,22.92
2022-09-14T05:19:15.226Z,22.92
2022-09-14T05:21:42.433Z,22.92
2022-09-14T05:24:16.759Z,22.91
2022-09-14T05:26:45.680Z,22.93
2022-09-14T05:29:18.418Z,22.91
2022-09-14T05:31:45.898Z,22.90
2022-09-14T05:34:13.486Z,22.90
2022-09-14T05:36:41.245Z,22.89
2022-09-14T05:39:10.026Z,22.90
2022-09-14T05:41:37.728Z,22.91
2022-09-14T05:44:06.316Z,22.92
2022-09-14T05:46:34.321Z,22.91
2022-09-14T05:49:01.768Z,22.92
2022-09-14T05:51:28.963Z,22.94
2022-09-14T05:53:58.054Z,22.94
2022-09-14T05:56:28.533Z,22.96
2022-09-14T05:58:55.923Z,22.96
2022-09-14T06:01:25.988Z,23.00
2022-09-14T06:03:55.550Z,23.01
2022-09-14T06:06:23.516Z,23.02
2022-09-14T06:08:54.246Z,23.05
2022-09-14T06:11:33.068Z,23.07
2022-09-14T06:14:00.639Z,23.10
2022-09-14T06:16:29.168Z,23.14
2022-09-14T06:18:58.348Z,23.17
2022-09-14T06:21:30.458Z,23.20
2022-09-14T06:23:57.758Z,23.20
2022-09-14T06:26:25.969Z,23.24
2022-09-14T06:28:53.714Z,23.26
2022-09-14T06:31:22.727Z,23.27
2022-09-14T06:33:51.697Z,23.30
2022-09-14T06:36:26.266Z,23.30
2022-09-14T06:38:54.293Z,23.32
2022-09-14T06:41:26.609Z,23.33
2022-09-14T06:43:58.321Z,23.37
2022-09-14T06:46:31.432Z,23.41
2022-09-14T06:49:14.685Z,23.42
2022-09-14T06:51:46.850Z,23.46
2022-09-14T06:54:15.981Z,23.48
2022-09-14T06:56:45.131Z,23.54
2022-09-14T06:59:15.301Z,23.60
2022-09-14T07:01:44.922Z,23.66
2022-09-14T07:04:12.556Z,23.73
2022-09-14T07:06:48.589Z,23.77
2022-09-14T07:09:17.695Z,23.84
2022-09-14T07:11:45.566Z,23.90
2022-09-14T07:14:12.976Z,23.97
2022-09-14T07:16:41.131Z,24.02
2022-09-14T07:19:13.115Z,24.07
2022-09-14T07:21:41.613Z,24.10
2022-09-14T07:24:08.946Z,24.16
2022-09-14T07:26:40.552Z,24.21
2022-09-14T07:29:15.087Z,24.24
2022-09-14T07:31:49.344Z,24.29
2022-09-14T07:34:17.383Z,24.34
2022-09-14T07:36:44.887Z,24.38
2022-09-14T07:39:16.153Z,24.42
2022-09-14T07:41:44.022Z,24.46
2022-09-14T07:44:15.750Z,24.51
2022-09-14T07:46:44.658Z,24.57
2022-09-14T07:49:12.904Z,24.59
2022-09-14T07:51:40.351Z,24.62
2022-09-14T07:54:11.326Z,24.63
2022-09-14T07:56:38.826Z,24.67
2022-09-14T08:01:52.879Z,24.76
2022-09-14T08:04:20.052Z,24.77
2022-09-14T08:06:47.361Z,24.85
2022-09-14T08:09:14.564Z,24.85
2022-09-14T08:11:41.525Z,24.92
2022-09-14T08:14:11.587Z,24.94
2022-09-14T08:16:40.699Z,25.00
2022-09-14T08:19:16.532Z,25.01
2022-09-14T08:21:47.335Z,24.95
2022-09-14T08:24:18.842Z,24.98
2022-09-14T08:26:47.499Z,25.01
2022-09-14T08:29:16.563Z,25.05
2022-09-14T08:31:45.661Z,25.09
2022-09-14T08:34:15.080Z,25.12
2022-09-14T08:36:43.208Z,25.15
2022-09-14T08:39:14.026Z,25.16
2022-09-14T08:41:43.833Z,25.17
2022-09-14T08:44:31.622Z,25.16
2022-09-14T08:47:12.481Z,25.11
2022-09-14T08:49:56.441Z,25.15
2022-09-14T08:52:39.961Z,25.20
2022-09-14T08:55:53.299Z,25.26
2022-09-14T08:58:29.932Z,25.29
2022-09-14T09:01:12.450Z,25.35
2022-09-14T09:04:20.076Z,25.43
2022-09-14T09:07:03.042Z,25.49
2022-09-14T09:09:46.845Z,25.59
2022-09-14T09:12:30.118Z,25.58
2022-09-14T09:15:05.191Z,25.61
2022-09-14T09:17:42.479Z,25.70
2022-09-14T09:20:19.478Z,25.73
2022-09-14T09:23:15.615Z,25.84
2022-09-14T09:25:54.898Z,25.93
2022-09-14T09:28:24.085Z,25.97
2022-09-14T09:30:53.706Z,26.04
2022-09-14T09:33:28.224Z,26.09
2022-09-14T09:36:12.924Z,26.13
2022-09-14T09:38:40.530Z,26.17
2022-09-14T09:41:22.013Z,26.24
2022-09-14T09:44:06.823Z,26.27
2022-09-14T09:46:38.574Z,26.31
2022-09-14T09:49:22.052Z,26.33
2022-09-14T09:51:50.429Z,26.33
2022-09-14T09:54:30.218Z,26.35
2022-09-14T09:57:06.404Z,26.38
2022-09-14T09:59:44.239Z,26.39
2022-09-14T10:02:22.120Z,26.37
2022-09-14T10:05:10.885Z,26.39
2022-09-14T10:07:55.405Z,26.39
2022-09-14T10:10:40.448Z,26.41
2022-09-14T10:13:38.570Z,26.42
2022-09-14T10:16:17.997Z,26.45
2022-09-14T10:18:52.126Z,26.51
2022-09-14T10:21:22.401Z,26.57
2022-09-14T10:24:21.793Z,26.61
2022-09-14T10:26:48.936Z,26.67
2022-09-14T10:29:28.809Z,26.74
2022-09-14T10:32:05.393Z,26.81
2022-09-14T10:34:33.856Z,26.85
2022-09-14T10:37:24.422Z,26.83
2022-09-14T10:40:18.349Z,26.81
2022-09-14T10:43:16.503Z,26.76
2022-09-14T10:45:52.866Z,26.82
2022-09-14T10:49:04.883Z,26.90
2022-09-14T10:51:50.356Z,26.95
2022-09-14T10:54:32.640Z,26.99
2022-09-14T10:57:49.031Z,27.03
2022-09-14T11:00:20.765Z,27.09
2022-09-14T11:03:46.249Z,27.18
2022-09-14T11:06:38.282Z,27.21
2022-09-14T11:09:23.066Z,27.31
2022-09-14T11:12:02.151Z,27.35
2022-09-14T11:15:15.887Z,27.40
2022-09-14T11:17:54.668Z,27.41
2022-09-14T11:20:45.813Z,27.43
2022-09-14T11:23:26.597Z,27.49
2022-09-14T11:26:09.134Z,27.58
2022-09-14T11:28:56.501Z,27.64
2022-09-14T11:31:38.014Z,27.70
2022-09-14T11:34:29.300Z,27.73
2022-09-14T11:37:05.592Z,27.73
2022-09-14T11:40:06.576Z,27.75
2022-09-14T11:43:10.441Z,27.77
2022-09-14T11:46:06.678Z,27.74
2022-09-14T11:49:05.077Z,27.74
2022-09-14T11:51:41.770Z,27.73
2022-09-14T11:54:22.859Z,27.74
2022-09-14T11:56:55.842Z,27.80
2022-09-14T11:59:50.393Z,27.90
2022-09-14T12:02:23.415Z,27.96
2022-09-14T12:05:09.187Z,28.07
2022-09-14T12:07:39.599Z,28.16
2022-09-14T12:10:15.979Z,28.27
2022-09-14T12:12:57.803Z,28.27
2022-09-14T12:15:24.729Z,28.24
2022-09-14T12:18:06.630Z,28.26
2022-09-14T12:20:50.503Z,28.27
2022-09-14T12:23:38.823Z,28.30
2022-09-14T12:26:15.810Z,28.36
2022-09-14T12:28:50.272Z,28.42
2022-09-14T12:31:36.079Z,28.49
2022-09-14T12:34:15.113Z,28.50
2022-09-14T12:36:42.521Z,28.47
2022-09-14T12:39:23.617Z,28.46
2022-09-14T12:41:50.482Z,28.42
2022-09-14T12:44:42.749Z,28.37
2022-09-14T12:47:24.976Z,28.37
2022-09-14T12:50:18.411Z,28.40
2022-09-14T12:53:14.207Z,28.44
2022-09-14T12:55:57.432Z,28.51
2022-09-14T12:58:59.942Z,28.62
2022-09-14T13:01:35.142Z,28.73
2022-09-14T13:04:04.531Z,28.78
2022-09-14T13:06:44.434Z,28.78
2022-09-14T13:09:22.330Z,28.72
2022-09-14T13:11:58.575Z,28.73
2022-09-14T13:14:31.910Z,28.72
2022-09-14T13:17:04.269Z,28.73
2022-09-14T13:19:33.746Z,28.72
2022-09-14T13:22:03.019Z,28.70
2022-09-14T13:24:38.941Z,28.67
2022-09-14T13:27:35.014Z,28.64
2022-09-14T13:30:23.444Z,28.56
2022-09-14T13:32:54.849Z,28.54
2022-09-14T13:35:39.360Z,28.52
2022-09-14T13:38:22.016Z,28.50
2022-09-14T13:40:52.412Z,28.49
2022-09-14T13:43:22.129Z,28.49
2022-09-14T13:45:51.563Z,28.53
2022-09-14T13:48:20.273Z,28.52
2022-09-14T13:50:50.422Z,28.54
2022-09-14T13:53:48.580Z,28.59
2022-09-14T13:56:35.563Z,28.63
2022-09-14T13:59:08.695Z,28.63
2022-09-14T14:01:47.278Z,28.64
2022-09-14T14:04:23.563Z,28.64
2022-09-14T14:07:07.091Z,28.64
2022-09-14T14:09:50.749Z,28.68
2022-09-14T14:12:45.187Z,28.67
2022-09-14T14:15:14.881Z,28.66
2022-09-14T14:17:42.229Z,28.66
2022-09-14T14:20:39.226Z,28.65
2022-09-14T14:23:06.174Z,28.63
2022-09-14T14:25:43.364Z,28.61
2022-09-14T14:28:22.916Z,28.59
2022-09-14T14:30:50.689Z,28.56
2022-09-14T14:33:19.369Z,28.53
2022-09-14T14:35:48.632Z,28.48
2022-09-14T14:38:16.446Z,28.43
2022-09-14T14:40:44.864Z,28.37
2022-09-14T14:43:20.714Z,28.34
2022-09-14T14:45:48.854Z,28.29
2022-09-14T14:48:18.368Z,28.22
2022-09-14T14:50:46.640Z,28.18
2022-09-14T14:53:13.783Z,28.13
2022-09-14T14:55:41.039Z,28.07
2022-09-14T14:58:16.316Z,28.03
2022-09-14T15:00:43.401Z,27.99
2022-09-14T15:03:10.457Z,27.93
2022-09-14T15:05:43.175Z,27.85
2022-09-14T15:08:16.223Z,27.78
2022-09-14T15:10:43.305Z,27.77
2022-09-14T15:13:13.792Z,27.81
2022-09-14T15:15:43.001Z,27.81
2022-09-14T15:18:10.122Z,27.84
2022-09-14T15:20:38.635Z,27.86
2022-09-14T15:23:06.165Z,27.88
2022-09-14T15:25:33.297Z,27.90
2022-09-14T15:28:00.436Z,27.90
2022-09-14T15:30:27.524Z,27.92
2022-09-14T15:32:54.631Z,27.93
2022-09-14T15:35:21.630Z,27.95
2022-09-14T15:37:48.630Z,27.96
2022-09-14T15:40:16.539Z,27.96
2022-09-14T15:42:44.039Z,27.95
2022-09-14T15:45:11.220Z,27.93
2022-09-14T15:47:42.230Z,27.94
2022-09-14T15:50:11.544Z,27.94
2022-09-14T15:52:39.446Z,27.95
2022-09-14T15:55:09.116Z,27.95
2022-09-14T15:57:37.597Z,27.94
2022-09-14T16:00:12.879Z,27.95
2022-09-14T16:02:43.230Z,27.93
2022-09-14T16:05:10.978Z,27.93
2022-09-14T16:07:38.457Z,27.94
2022-09-14T16:10:06.431Z,27.95
2022-09-14T16:12:33.378Z,27.91
2022-09-14T16:15:00.598Z,27.92
2022-09-14T16:17:27.624Z,27.91
2022-09-14T16:19:54.607Z,27.89
2022-09-14T16:22:21.985Z,27.89
2022-09-14T16:24:49.180Z,27.86
2022-09-14T16:27:16.333Z,27.83
2022-09-14T16:29:43.414Z,27.82
2022-09-14T16:32:10.406Z,27.78
2022-09-14T16:34:37.953Z,27.77
2022-09-14T16:37:04.966Z,27.76
2022-09-14T16:39:34.804Z,27.74
2022-09-14T16:42:02.146Z,27.71
2022-09-14T16:44:29.798Z,27.69
2022-09-14T16:46:58.396Z,27.67
2022-09-14T16:49:27.903Z,27.66
2022-09-14T16:51:56.727Z,27.63
2022-09-14T16:54:25.765Z,27.58
2022-09-14T16:56:58.041Z,27.55
2022-09-14T16:59:25.832Z,27.53
2022-09-14T17:01:54.914Z,27.49
2022-09-14T17:04:24.232Z,27.44
2022-09-14T17:06:52.970Z,27.38
2022-09-14T17:09:27.529Z,27.33
2022-09-14T17:11:56.469Z,27.26
2022-09-14T17:14:30.303Z,27.23
2022-09-14T17:16:58.867Z,27.19
2022-09-14T17:19:27.389Z,27.15
2022-09-14T17:21:54.908Z,27.10
2022-09-14T17:24:22.504Z,27.07
2022-09-14T17:26:50.113Z,27.06
2022-09-14T17:29:17.840Z,27.04
2022-09-14T17:31:45.934Z,27.02
2022-09-14T17:34:16.598Z,26.99
2022-09-14T17:36:44.407Z,26.96
2022-09-14T17:39:12.587Z,26.92
2022-09-14T17:41:42.838Z,26.88
2022-09-14T17:44:12.955Z,26.84
2022-09-14T17:46:49.527Z,26.84
2022-09-14T17:49:19.364Z,26.81
2022-09-14T17:51:46.399Z,26.76
2022-09-14T17:54:13.445Z,26.75
2022-09-14T17:56:40.774Z,26.76
2022-09-14T17:59:13.354Z,26.77
2022-09-14T18:01:41.118Z,26.75
2022-09-14T18:04:12.218Z,26.72
2022-09-14T18:06:44.672Z,26.68
2022-09-14T18:09:19.523Z,26.63
2022-09-14T18:11:47.003Z,26.58
2022-09-14T18:14:15.753Z,26.57
2022-09-14T18:16:44.173Z,26.53
2022-09-14T18:19:11.784Z,26.51
2022-09-14T18:21:39.201Z,26.47
2022-09-14T18:24:06.647Z,26.43
2022-09-14T18:26:33.769Z,26.40
2022-09-14T18:29:00.902Z,26.41
2022-09-14T18:31:28.044Z,26.38
2022-09-14T18:34:01.662Z,26.37
2022-09-14T18:36:29.851Z,26.30
2022-09-14T18:38:58.727Z,26.29
2022-09-14T18:41:29.551Z,26.26
2022-09-14T18:43:57.988Z,26.24
2022-09-14T18:46:28.019Z,26.23
2022-09-14T18:48:57.828Z,26.20
2022-09-14T18:51:25.985Z,26.18
2022-09-14T18:54:13.400Z,26.15
2022-09-14T18:56:41.418Z,26.10
2022-09-14T18:59:15.258Z,26.05
2022-09-14T19:01:42.999Z,25.97
2022-09-14T19:04:11.329Z,25.94
2022-09-14T19:06:41.514Z,25.92
2022-09-14T19:09:09.818Z,25.90
2022-09-14T19:11:37.624Z,25.88
2022-09-14T19:14:10.221Z,25.89
2022-09-14T19:16:39.548Z,25.86
2022-09-14T19:19:08.898Z,25.86
2022-09-14T19:21:36.092Z,25.85
2022-09-14T19:24:10.857Z,25.85
2022-09-14T19:26:45.259Z,25.82
2022-09-14T19:29:16.872Z,25.80
2022-09-14T19:31:44.134Z,25.78
2022-09-14T19:34:11.943Z,25.76
2022-09-14T19:36:38.926Z,25.72
2022-09-14T19:39:06.346Z,25.69
2022-09-14T19:41:35.008Z,25.65
2022-09-14T19:44:03.990Z,25.63
2022-09-14T19:46:34.112Z,25.58
2022-09-14T19:49:01.097Z,25.54
2022-09-14T19:51:30.474Z,25.54
2022-09-14T19:54:00.460Z,25.52
2022-09-14T19:56:30.663Z,25.47
2022-09-14T19:59:00.526Z,25.44
2022-09-14T20:01:29.636Z,25.41
2022-09-14T20:03:57.474Z,25.39
2022-09-14T20:06:40.668Z,25.36
2022-09-14T20:09:20.913Z,25.35
2022-09-14T20:11:50.489Z,25.32
2022-09-14T20:14:23.095Z,25.29
2022-09-14T20:16:55.382Z,25.25
2022-09-14T20:19:27.169Z,25.24
2022-09-14T20:21:54.382Z,25.23
2022-09-14T20:24:31.118Z,25.22
2022-09-14T20:27:00.809Z,25.21
2022-09-14T20:29:31.218Z,25.21
2022-09-14T20:31:59.148Z,25.18
2022-09-14T20:34:27.143Z,25.18
2022-09-14T20:36:55.134Z,25.16
2022-09-14T20:39:23.875Z,25.15
2022-09-14T20:41:51.126Z,25.11
2022-09-14T20:44:22.277Z,25.10
2022-09-14T20:46:50.639Z,25.09
2022-09-14T20:49:22.223Z,25.08
2022-09-14T20:51:49.584Z,25.07
2022-09-14T20:54:17.997Z,25.06
2022-09-14T20:56:46.376Z,25.02
2022-09-14T20:59:16.706Z,25.00
2022-09-14T21:01:46.295Z,24.99
2022-09-14T21:04:17.189Z,24.98
2022-09-14T21:06:47.972Z,24.95
2022-09-14T21:09:18.252Z,24.97
2022-09-14T21:11:46.305Z,24.92
2022-09-14T21:14:15.660Z,24.89
2022-09-14T21:16:46.728Z,24.83
2022-09-14T21:19:16.711Z,24.81
2022-09-14T21:21:43.879Z,24.82
2022-09-14T21:24:13.452Z,24.82
2022-09-14T21:26:42.989Z,24.80
2022-09-14T21:29:20.314Z,24.79
2022-09-14T21:31:48.830Z,24.81
2022-09-14T21:34:16.348Z,24.79
2022-09-14T21:36:47.207Z,24.76
2022-09-14T21:39:23.049Z,24.73
2022-09-14T21:41:57.318Z,24.72
2022-09-14T21:44:34.588Z,24.69
2022-09-14T21:47:03.188Z,24.66
2022-09-14T21:49:30.684Z,24.63
2022-09-14T21:51:57.661Z,24.63
2022-09-14T21:54:24.627Z,24.63
2022-09-14T21:56:52.766Z,24.61
2022-09-14T21:59:21.824Z,24.57
2022-09-14T22:01:49.314Z,24.51
2022-09-14T22:04:20.883Z,24.47
2022-09-14T22:06:48.815Z,24.44
2022-09-14T22:09:18.356Z,24.42
2022-09-14T22:11:45.650Z,24.40
2022-09-14T22:14:18.940Z,24.40
2022-09-14T22:16:47.341Z,24.39
2022-09-14T22:19:17.126Z,24.34
2022-09-14T22:21:44.494Z,24.34
2022-09-14T22:24:17.409Z,24.34
2022-09-14T22:26:45.471Z,24.32
2022-09-14T22:29:14.616Z,24.33
2022-09-14T22:31:43.993Z,24.30
2022-09-14T22:34:12.675Z,24.24
2022-09-14T22:36:42.763Z,24.23
2022-09-14T22:39:11.181Z,24.22
2022-09-14T22:41:38.547Z,24.22
2022-09-14T22:44:06.433Z,24.20
2022-09-14T22:46:34.151Z,24.18
2022-09-14T22:49:01.394Z,24.16
2022-09-14T22:51:29.870Z,24.11
2022-09-14T22:53:57.647Z,24.09
2022-09-14T22:56:32.401Z,24.04
2022-09-14T22:59:02.547Z,24.01
2022-09-14T23:01:34.697Z,24.00
2022-09-14T23:04:06.359Z,23.98
2022-09-14T23:06:38.268Z,23.96
2022-09-14T23:09:07.562Z,23.96
2022-09-14T23:11:35.145Z,23.95
2022-09-14T23:14:02.120Z,23.82
2022-09-14T23:16:31.084Z,23.76
2022-09-14T23:19:04.635Z,23.75
2022-09-14T23:21:31.730Z,23.73
2022-09-14T23:24:05.828Z,23.75
2022-09-14T23:26:33.960Z,23.74
2022-09-14T23:29:09.208Z,23.77
2022-09-14T23:31:36.465Z,23.76
2022-09-14T23:34:05.433Z,23.80
2022-09-14T23:36:33.027Z,23.78
2022-09-14T23:39:00.447Z,23.78
2022-09-14T23:41:28.113Z,23.78
2022-09-14T23:43:55.368Z,23.80
2022-09-14T23:46:23.808Z,23.79
2022-09-14T23:48:51.781Z,23.70
2022-09-14T23:51:19.336Z,23.65
2022-09-14T23:53:46.870Z,23.62
2022-09-14T23:56:15.310Z,23.63
2022-09-14T23:58:43.359Z,23.58
